sensor_id;sensor_type;location;lat;lon;timestamp;P1;durP1;ratioP1;P2;durP2;ratioP2
27199;SDS011;14714;48.106;11.546;2023-01-19T00:00:51;17.58;;;10.50;;
27199;SDS011;14714;48.106;11.546;2023-01-19T00:03:18;18.10;;;10.30;;
27199;SDS011;14714;48.106;11.546;2023-01-19T00:05:45;19.80;;;12.02;;
27199;SDS011;14714;48.106;11.546;2023-01-19T00:08:12;17.15;;;10.30;;
27199;SDS011;14714;48.106;11.546;2023-01-19T00:10:44;18.45;;;11.10;;
27199;SDS011;14714;48.106;11.546;2023-01-19T00:13:13;19.50;;;11.18;;
27199;SDS011;14714;48.106;11.546;2023-01-19T00:15:40;20.00;;;11.57;;
27199;SDS011;14714;48.106;11.546;2023-01-19T00:18:08;19.75;;;10.98;;
27199;SDS011;14714;48.106;11.546;2023-01-19T00:20:36;18.70;;;11.77;;
27199;SDS011;14714;48.106;11.546;2023-01-19T00:23:04;17.05;;;10.35;;
27199;SDS011;14714;48.106;11.546;2023-01-19T00:25:33;19.83;;;11.82;;
27199;SDS011;14714;48.106;11.546;2023-01-19T00:28:00;20.48;;;10.98;;
27199;SDS011;14714;48.106;11.546;2023-01-19T00:30:27;15.95;;;10.73;;
27199;SDS011;14714;48.106;11.546;2023-01-19T00:32:54;20.58;;;10.85;;
27199;SDS011;14714;48.106;11.546;2023-01-19T00:35:21;17.38;;;10.77;;
27199;SDS011;14714;48.106;11.546;2023-01-19T00:37:48;18.20;;;10.75;;
27199;SDS011;14714;48.106;11.546;2023-01-19T00:40:14;18.75;;;10.38;;
27199;SDS011;14714;48.106;11.546;2023-01-19T00:42:42;16.35;;;9.45;;
27199;SDS011;14714;48.106;11.546;2023-01-19T00:45:14;18.65;;;10.65;;
27199;SDS011;14714;48.106;11.546;2023-01-19T00:50:11;15.93;;;9.45;;
27199;SDS011;14714;48.106;11.546;2023-01-19T00:52:39;16.98;;;9.18;;
27199;SDS011;14714;48.106;11.546;2023-01-19T00:55:07;14.00;;;8.98;;
27199;SDS011;14714;48.106;11.546;2023-01-19T00:57:35;16.33;;;9.30;;
27199;SDS011;14714;48.106;11.546;2023-01-19T01:00:03;16.00;;;9.52;;
27199;SDS011;14714;48.106;11.546;2023-01-19T01:02:32;16.10;;;9.33;;
27199;SDS011;14714;48.106;11.546;2023-01-19T01:04:59;16.02;;;9.48;;
27199;SDS011;14714;48.106;11.546;2023-01-19T01:07:28;15.32;;;9.93;;
27199;SDS011;14714;48.106;11.546;2023-01-19T01:09:55;17.15;;;9.93;;
27199;SDS011;14714;48.106;11.546;2023-01-19T01:12:22;16.70;;;9.48;;
27199;SDS011;14714;48.106;11.546;2023-01-19T01:14:49;14.75;;;9.05;;
27199;SDS011;14714;48.106;11.546;2023-01-19T01:17:16;15.80;;;8.15;;
27199;SDS011;14714;48.106;11.546;2023-01-19T01:19:50;15.68;;;8.52;;
27199;SDS011;14714;48.106;11.546;2023-01-19T01:22:17;14.85;;;8.38;;
27199;SDS011;14714;48.106;11.546;2023-01-19T01:24:44;13.50;;;8.23;;
27199;SDS011;14714;48.106;11.546;2023-01-19T01:27:10;12.18;;;8.05;;
27199;SDS011;14714;48.106;11.546;2023-01-19T01:29:38;14.57;;;8.27;;
27199;SDS011;14714;48.106;11.546;2023-01-19T01:32:06;16.27;;;9.30;;
27199;SDS011;14714;48.106;11.546;2023-01-19T01:34:33;16.48;;;8.68;;
27199;SDS011;14714;48.106;11.546;2023-01-19T01:37:00;13.90;;;9.02;;
27199;SDS011;14714;48.106;11.546;2023-01-19T01:39:28;17.05;;;9.32;;
27199;SDS011;14714;48.106;11.546;2023-01-19T01:41:54;16.10;;;8.93;;
27199;SDS011;14714;48.106;11.546;2023-01-19T01:52:39;14.23;;;8.90;;
27199;SDS011;14714;48.106;11.546;2023-01-19T01:55:33;15.95;;;8.55;;
27199;SDS011;14714;48.106;11.546;2023-01-19T01:58:03;14.73;;;8.40;;
27199;SDS011;14714;48.106;11.546;2023-01-19T02:00:31;14.10;;;8.20;;
27199;SDS011;14714;48.106;11.546;2023-01-19T02:03:17;14.93;;;8.68;;
27199;SDS011;14714;48.106;11.546;2023-01-19T02:05:45;15.55;;;8.57;;
27199;SDS011;14714;48.106;11.546;2023-01-19T02:08:19;15.48;;;8.60;;
27199;SDS011;14714;48.106;11.546;2023-01-19T02:11:10;12.55;;;7.80;;
27199;SDS011;14714;48.106;11.546;2023-01-19T02:13:56;13.07;;;7.63;;
27199;SDS011;14714;48.106;11.546;2023-01-19T02:16:23;14.30;;;8.35;;
27199;SDS011;14714;48.106;11.546;2023-01-19T02:18:50;12.10;;;7.53;;
27199;SDS011;14714;48.106;11.546;2023-01-19T02:24:00;13.65;;;7.30;;
27199;SDS011;14714;48.106;11.546;2023-01-19T02:26:28;12.40;;;7.07;;
27199;SDS011;14714;48.106;11.546;2023-01-19T02:29:03;10.48;;;6.32;;
27199;SDS011;14714;48.106;11.546;2023-01-19T02:31:33;10.93;;;6.43;;
27199;SDS011;14714;48.106;11.546;2023-01-19T02:34:02;11.38;;;6.57;;
27199;SDS011;14714;48.106;11.546;2023-01-19T02:36:34;8.55;;;5.65;;
27199;SDS011;14714;48.106;11.546;2023-01-19T02:39:07;12.07;;;6.03;;
27199;SDS011;14714;48.106;11.546;2023-01-19T02:41:40;11.55;;;5.78;;
27199;SDS011;14714;48.106;11.546;2023-01-19T02:44:11;10.13;;;5.40;;
27199;SDS011;14714;48.106;11.546;2023-01-19T02:46:38;9.82;;;5.50;;
27199;SDS011;14714;48.106;11.546;2023-01-19T02:49:06;8.70;;;5.40;;
27199;SDS011;14714;48.106;11.546;2023-01-19T02:51:32;10.10;;;5.28;;
27199;SDS011;14714;48.106;11.546;2023-01-19T02:59:17;9.63;;;5.68;;
27199;SDS011;14714;48.106;11.546;2023-01-19T03:10:02;8.23;;;5.55;;
27199;SDS011;14714;48.106;11.546;2023-01-19T03:15:17;16.10;;;6.63;;
27199;SDS011;14714;48.106;11.546;2023-01-19T03:17:48;10.02;;;5.90;;
27199;SDS011;14714;48.106;11.546;2023-01-19T03:20:17;9.68;;;6.28;;
27199;SDS011;14714;48.106;11.546;2023-01-19T03:22:49;10.93;;;6.43;;
27199;SDS011;14714;48.106;11.546;2023-01-19T03:25:21;12.13;;;6.93;;
27199;SDS011;14714;48.106;11.546;2023-01-19T03:27:50;14.27;;;7.22;;
27199;SDS011;14714;48.106;11.546;2023-01-19T03:30:21;10.93;;;7.40;;
27199;SDS011;14714;48.106;11.546;2023-01-19T03:32:56;14.32;;;7.38;;
27199;SDS011;14714;48.106;11.546;2023-01-19T03:35:29;12.23;;;6.95;;
27199;SDS011;14714;48.106;11.546;2023-01-19T03:37:58;12.82;;;7.40;;
27199;SDS011;14714;48.106;11.546;2023-01-19T03:40:28;14.43;;;7.57;;
27199;SDS011;14714;48.106;11.546;2023-01-19T03:42:56;12.48;;;7.60;;
27199;SDS011;14714;48.106;11.546;2023-01-19T03:45:25;11.60;;;7.43;;
27199;SDS011;14714;48.106;11.546;2023-01-19T03:47:53;16.08;;;8.40;;
27199;SDS011;14714;48.106;11.546;2023-01-19T03:50:23;12.43;;;7.80;;
27199;SDS011;14714;48.106;11.546;2023-01-19T03:53:04;12.65;;;8.10;;
27199;SDS011;14714;48.106;11.546;2023-01-19T03:55:33;12.52;;;8.05;;
27199;SDS011;14714;48.106;11.546;2023-01-19T03:58:01;15.48;;;8.55;;
27199;SDS011;14714;48.106;11.546;2023-01-19T04:00:28;14.90;;;8.27;;
27199;SDS011;14714;48.106;11.546;2023-01-19T04:02:55;13.85;;;8.20;;
27199;SDS011;14714;48.106;11.546;2023-01-19T04:05:23;15.50;;;8.05;;
27199;SDS011;14714;48.106;11.546;2023-01-19T04:07:51;14.38;;;7.95;;
27199;SDS011;14714;48.106;11.546;2023-01-19T04:10:18;14.50;;;8.80;;
27199;SDS011;14714;48.106;11.546;2023-01-19T04:12:45;14.80;;;9.00;;
27199;SDS011;14714;48.106;11.546;2023-01-19T04:15:12;16.77;;;9.23;;
27199;SDS011;14714;48.106;11.546;2023-01-19T04:17:40;17.77;;;9.60;;
27199;SDS011;14714;48.106;11.546;2023-01-19T04:20:07;15.35;;;9.13;;
27199;SDS011;14714;48.106;11.546;2023-01-19T04:22:34;14.93;;;9.65;;
27199;SDS011;14714;48.106;11.546;2023-01-19T04:25:01;13.63;;;8.63;;
27199;SDS011;14714;48.106;11.546;2023-01-19T04:27:28;16.60;;;10.02;;
27199;SDS011;14714;48.106;11.546;2023-01-19T04:29:55;15.82;;;9.50;;
27199;SDS011;14714;48.106;11.546;2023-01-19T04:32:21;15.35;;;9.75;;
27199;SDS011;14714;48.106;11.546;2023-01-19T04:34:48;17.25;;;9.30;;
27199;SDS011;14714;48.106;11.546;2023-01-19T04:37:15;16.77;;;9.35;;
27199;SDS011;14714;48.106;11.546;2023-01-19T04:39:42;18.02;;;9.02;;
27199;SDS011;14714;48.106;11.546;2023-01-19T04:42:09;15.32;;;9.40;;
27199;SDS011;14714;48.106;11.546;2023-01-19T04:44:36;16.13;;;8.73;;
27199;SDS011;14714;48.106;11.546;2023-01-19T04:47:03;17.80;;;10.02;;
27199;SDS011;14714;48.106;11.546;2023-01-19T04:49:29;14.15;;;8.68;;
27199;SDS011;14714;48.106;11.546;2023-01-19T04:51:56;17.35;;;9.23;;
27199;SDS011;14714;48.106;11.546;2023-01-19T04:54:23;15.48;;;8.80;;
27199;SDS011;14714;48.106;11.546;2023-01-19T04:56:50;15.75;;;9.07;;
27199;SDS011;14714;48.106;11.546;2023-01-19T04:59:17;13.80;;;9.65;;
27199;SDS011;14714;48.106;11.546;2023-01-19T05:01:45;15.80;;;9.45;;
27199;SDS011;14714;48.106;11.546;2023-01-19T05:04:12;17.17;;;10.10;;
27199;SDS011;14714;48.106;11.546;2023-01-19T05:06:39;17.23;;;9.73;;
27199;SDS011;14714;48.106;11.546;2023-01-19T05:09:06;16.60;;;10.65;;
27199;SDS011;14714;48.106;11.546;2023-01-19T05:11:34;15.30;;;9.57;;
27199;SDS011;14714;48.106;11.546;2023-01-19T05:14:01;17.80;;;10.70;;
27199;SDS011;14714;48.106;11.546;2023-01-19T05:16:28;16.00;;;9.88;;
27199;SDS011;14714;48.106;11.546;2023-01-19T05:18:54;15.80;;;10.23;;
27199;SDS011;14714;48.106;11.546;2023-01-19T05:21:21;15.82;;;9.50;;
27199;SDS011;14714;48.106;11.546;2023-01-19T05:23:48;15.65;;;10.13;;
27199;SDS011;14714;48.106;11.546;2023-01-19T05:26:15;17.55;;;10.82;;
27199;SDS011;14714;48.106;11.546;2023-01-19T05:28:42;18.75;;;11.40;;
27199;SDS011;14714;48.106;11.546;2023-01-19T05:31:08;20.50;;;11.50;;
27199;SDS011;14714;48.106;11.546;2023-01-19T05:33:35;21.55;;;11.57;;
27199;SDS011;14714;48.106;11.546;2023-01-19T05:36:02;21.67;;;12.02;;
27199;SDS011;14714;48.106;11.546;2023-01-19T05:38:29;22.17;;;12.52;;
27199;SDS011;14714;48.106;11.546;2023-01-19T05:41:00;24.92;;;13.52;;
27199;SDS011;14714;48.106;11.546;2023-01-19T05:43:27;23.15;;;12.60;;
27199;SDS011;14714;48.106;11.546;2023-01-19T05:45:54;21.60;;;12.35;;
27199;SDS011;14714;48.106;11.546;2023-01-19T05:48:21;18.35;;;11.52;;
27199;SDS011;14714;48.106;11.546;2023-01-19T05:50:48;23.30;;;11.93;;
27199;SDS011;14714;48.106;11.546;2023-01-19T05:53:15;20.13;;;11.85;;
27199;SDS011;14714;48.106;11.546;2023-01-19T05:55:42;20.08;;;11.45;;
27199;SDS011;14714;48.106;11.546;2023-01-19T05:58:10;21.83;;;12.75;;
27199;SDS011;14714;48.106;11.546;2023-01-19T06:00:36;18.63;;;11.48;;
27199;SDS011;14714;48.106;11.546;2023-01-19T06:03:03;22.10;;;11.70;;
27199;SDS011;14714;48.106;11.546;2023-01-19T06:05:31;19.80;;;11.82;;
27199;SDS011;14714;48.106;11.546;2023-01-19T06:07:59;19.33;;;11.80;;
27199;SDS011;14714;48.106;11.546;2023-01-19T06:10:25;20.20;;;11.23;;
27199;SDS011;14714;48.106;11.546;2023-01-19T06:12:52;21.85;;;12.82;;
27199;SDS011;14714;48.106;11.546;2023-01-19T06:15:19;19.92;;;11.75;;
27199;SDS011;14714;48.106;11.546;2023-01-19T06:17:46;23.27;;;12.90;;
27199;SDS011;14714;48.106;11.546;2023-01-19T06:20:12;23.00;;;12.93;;
27199;SDS011;14714;48.106;11.546;2023-01-19T06:22:39;28.60;;;13.65;;
27199;SDS011;14714;48.106;11.546;2023-01-19T06:25:06;19.15;;;11.75;;
27199;SDS011;14714;48.106;11.546;2023-01-19T06:27:34;26.35;;;13.63;;
27199;SDS011;14714;48.106;11.546;2023-01-19T06:30:02;19.98;;;11.88;;
27199;SDS011;14714;48.106;11.546;2023-01-19T06:32:29;19.88;;;12.02;;
27199;SDS011;14714;48.106;11.546;2023-01-19T06:34:56;23.95;;;12.55;;
27199;SDS011;14714;48.106;11.546;2023-01-19T06:37:23;20.35;;;12.40;;
27199;SDS011;14714;48.106;11.546;2023-01-19T06:39:52;23.23;;;13.02;;
27199;SDS011;14714;48.106;11.546;2023-01-19T06:42:19;22.88;;;13.20;;
27199;SDS011;14714;48.106;11.546;2023-01-19T06:44:45;22.08;;;12.57;;
27199;SDS011;14714;48.106;11.546;2023-01-19T06:47:13;22.13;;;12.57;;
27199;SDS011;14714;48.106;11.546;2023-01-19T06:49:41;24.30;;;12.65;;
27199;SDS011;14714;48.106;11.546;2023-01-19T06:52:12;22.25;;;12.93;;
27199;SDS011;14714;48.106;11.546;2023-01-19T06:54:43;24.00;;;12.98;;
27199;SDS011;14714;48.106;11.546;2023-01-19T06:57:11;24.98;;;13.32;;
27199;SDS011;14714;48.106;11.546;2023-01-19T06:59:39;19.42;;;11.52;;
27199;SDS011;14714;48.106;11.546;2023-01-19T07:02:06;23.23;;;12.75;;
27199;SDS011;14714;48.106;11.546;2023-01-19T07:04:52;25.98;;;12.45;;
27199;SDS011;14714;48.106;11.546;2023-01-19T07:07:19;23.65;;;13.15;;
27199;SDS011;14714;48.106;11.546;2023-01-19T07:09:46;22.30;;;13.18;;
27199;SDS011;14714;48.106;11.546;2023-01-19T07:12:13;23.25;;;13.07;;
27199;SDS011;14714;48.106;11.546;2023-01-19T07:14:40;20.40;;;12.65;;
27199;SDS011;14714;48.106;11.546;2023-01-19T07:17:07;21.40;;;12.30;;
27199;SDS011;14714;48.106;11.546;2023-01-19T07:19:35;26.65;;;12.10;;
27199;SDS011;14714;48.106;11.546;2023-01-19T07:22:01;22.85;;;12.35;;
27199;SDS011;14714;48.106;11.546;2023-01-19T07:24:28;22.40;;;12.48;;
27199;SDS011;14714;48.106;11.546;2023-01-19T07:27:03;20.98;;;12.07;;
27199;SDS011;14714;48.106;11.546;2023-01-19T07:29:30;22.08;;;12.63;;
27199;SDS011;14714;48.106;11.546;2023-01-19T07:31:57;21.23;;;12.95;;
27199;SDS011;14714;48.106;11.546;2023-01-19T07:34:24;21.15;;;12.18;;
27199;SDS011;14714;48.106;11.546;2023-01-19T07:36:50;22.00;;;12.63;;
27199;SDS011;14714;48.106;11.546;2023-01-19T07:39:17;18.98;;;11.77;;
27199;SDS011;14714;48.106;11.546;2023-01-19T07:41:44;19.50;;;11.60;;
27199;SDS011;14714;48.106;11.546;2023-01-19T07:44:13;22.05;;;11.95;;
27199;SDS011;14714;48.106;11.546;2023-01-19T07:46:40;22.63;;;12.63;;
27199;SDS011;14714;48.106;11.546;2023-01-19T07:49:08;21.15;;;11.95;;
27199;SDS011;14714;48.106;11.546;2023-01-19T07:51:35;22.95;;;12.15;;
27199;SDS011;14714;48.106;11.546;2023-01-19T07:54:02;20.98;;;12.30;;
27199;SDS011;14714;48.106;11.546;2023-01-19T07:56:28;21.35;;;11.55;;
27199;SDS011;14714;48.106;11.546;2023-01-19T07:58:57;20.73;;;11.10;;
27199;SDS011;14714;48.106;11.546;2023-01-19T08:01:24;21.00;;;12.00;;
27199;SDS011;14714;48.106;11.546;2023-01-19T08:03:51;18.45;;;11.38;;
27199;SDS011;14714;48.106;11.546;2023-01-19T08:06:19;18.33;;;11.15;;
27199;SDS011;14714;48.106;11.546;2023-01-19T08:08:52;20.08;;;11.73;;
27199;SDS011;14714;48.106;11.546;2023-01-19T08:11:19;17.83;;;11.10;;
27199;SDS011;14714;48.106;11.546;2023-01-19T08:13:45;19.85;;;11.52;;
27199;SDS011;14714;48.106;11.546;2023-01-19T08:16:12;19.35;;;11.23;;
27199;SDS011;14714;48.106;11.546;2023-01-19T08:18:39;17.90;;;10.93;;
27199;SDS011;14714;48.106;11.546;2023-01-19T08:21:05;19.77;;;11.35;;
27199;SDS011;14714;48.106;11.546;2023-01-19T08:23:32;15.48;;;10.43;;
27199;SDS011;14714;48.106;11.546;2023-01-19T08:25:59;21.83;;;11.65;;
27199;SDS011;14714;48.106;11.546;2023-01-19T08:28:26;18.70;;;11.52;;
27199;SDS011;14714;48.106;11.546;2023-01-19T08:30:53;19.08;;;10.73;;
27199;SDS011;14714;48.106;11.546;2023-01-19T08:33:21;17.20;;;10.18;;
27199;SDS011;14714;48.106;11.546;2023-01-19T08:35:50;18.55;;;10.50;;
27199;SDS011;14714;48.106;11.546;2023-01-19T08:38:18;18.52;;;10.85;;
27199;SDS011;14714;48.106;11.546;2023-01-19T08:40:45;16.27;;;10.32;;
27199;SDS011;14714;48.106;11.546;2023-01-19T08:43:14;18.88;;;10.38;;
27199;SDS011;14714;48.106;11.546;2023-01-19T08:45:43;15.90;;;10.48;;
27199;SDS011;14714;48.106;11.546;2023-01-19T08:48:14;17.48;;;10.18;;
27199;SDS011;14714;48.106;11.546;2023-01-19T08:50:44;17.33;;;10.45;;
27199;SDS011;14714;48.106;11.546;2023-01-19T08:53:12;22.33;;;11.23;;
27199;SDS011;14714;48.106;11.546;2023-01-19T08:55:40;19.65;;;10.32;;
27199;SDS011;14714;48.106;11.546;2023-01-19T08:58:07;17.75;;;10.63;;
27199;SDS011;14714;48.106;11.546;2023-01-19T09:00:35;17.85;;;9.95;;
27199;SDS011;14714;48.106;11.546;2023-01-19T09:03:07;17.05;;;9.73;;
27199;SDS011;14714;48.106;11.546;2023-01-19T09:05:36;16.30;;;9.63;;
27199;SDS011;14714;48.106;11.546;2023-01-19T09:08:05;17.10;;;9.30;;
27199;SDS011;14714;48.106;11.546;2023-01-19T09:10:34;16.10;;;9.57;;
27199;SDS011;14714;48.106;11.546;2023-01-19T09:13:03;14.18;;;9.35;;
27199;SDS011;14714;48.106;11.546;2023-01-19T09:15:32;19.23;;;9.77;;
27199;SDS011;14714;48.106;11.546;2023-01-19T09:18:01;14.38;;;9.57;;
27199;SDS011;14714;48.106;11.546;2023-01-19T09:20:29;13.52;;;9.02;;
27199;SDS011;14714;48.106;11.546;2023-01-19T09:22:59;16.00;;;8.95;;
27199;SDS011;14714;48.106;11.546;2023-01-19T09:25:25;14.18;;;8.93;;
27199;SDS011;14714;48.106;11.546;2023-01-19T09:27:52;14.43;;;8.98;;
27199;SDS011;14714;48.106;11.546;2023-01-19T09:30:21;13.40;;;8.68;;
27199;SDS011;14714;48.106;11.546;2023-01-19T09:32:48;15.02;;;8.90;;
27199;SDS011;14714;48.106;11.546;2023-01-19T09:35:14;14.75;;;8.65;;
27199;SDS011;14714;48.106;11.546;2023-01-19T09:37:44;13.45;;;8.77;;
27199;SDS011;14714;48.106;11.546;2023-01-19T09:40:13;14.95;;;9.32;;
27199;SDS011;14714;48.106;11.546;2023-01-19T09:45:16;12.88;;;8.73;;
27199;SDS011;14714;48.106;11.546;2023-01-19T09:48:02;17.15;;;8.73;;
27199;SDS011;14714;48.106;11.546;2023-01-19T09:50:34;15.18;;;7.95;;
27199;SDS011;14714;48.106;11.546;2023-01-19T09:53:08;13.60;;;8.40;;
27199;SDS011;14714;48.106;11.546;2023-01-19T09:55:41;13.68;;;8.48;;
27199;SDS011;14714;48.106;11.546;2023-01-19T09:58:10;15.00;;;8.45;;
27199;SDS011;14714;48.106;11.546;2023-01-19T10:00:42;14.05;;;8.05;;
27199;SDS011;14714;48.106;11.546;2023-01-19T10:03:15;12.85;;;8.27;;
27199;SDS011;14714;48.106;11.546;2023-01-19T10:05:48;13.40;;;8.00;;
27199;SDS011;14714;48.106;11.546;2023-01-19T10:08:39;13.73;;;8.23;;
27199;SDS011;14714;48.106;11.546;2023-01-19T10:11:35;13.30;;;8.43;;
27199;SDS011;14714;48.106;11.546;2023-01-19T10:14:28;13.10;;;9.30;;
27199;SDS011;14714;48.106;11.546;2023-01-19T10:17:14;12.77;;;7.85;;
27199;SDS011;14714;48.106;11.546;2023-01-19T10:19:52;12.63;;;7.32;;
27199;SDS011;14714;48.106;11.546;2023-01-19T10:22:24;13.75;;;7.80;;
27199;SDS011;14714;48.106;11.546;2023-01-19T10:24:54;13.40;;;7.88;;
27199;SDS011;14714;48.106;11.546;2023-01-19T10:29:55;12.25;;;7.25;;
27199;SDS011;14714;48.106;11.546;2023-01-19T10:32:27;13.07;;;7.05;;
27199;SDS011;14714;48.106;11.546;2023-01-19T10:34:57;13.05;;;7.05;;
27199;SDS011;14714;48.106;11.546;2023-01-19T10:37:29;9.73;;;6.65;;
27199;SDS011;14714;48.106;11.546;2023-01-19T10:42:37;10.07;;;6.80;;
27199;SDS011;14714;48.106;11.546;2023-01-19T10:45:18;10.45;;;6.10;;
27199;SDS011;14714;48.106;11.546;2023-01-19T10:47:47;10.45;;;6.35;;
27199;SDS011;14714;48.106;11.546;2023-01-19T10:52:56;8.38;;;5.50;;
27199;SDS011;14714;48.106;11.546;2023-01-19T10:55:29;10.00;;;6.43;;
27199;SDS011;14714;48.106;11.546;2023-01-19T10:58:03;8.70;;;6.35;;
27199;SDS011;14714;48.106;11.546;2023-01-19T11:00:36;9.25;;;6.25;;
27199;SDS011;14714;48.106;11.546;2023-01-19T11:03:04;9.88;;;5.38;;
27199;SDS011;14714;48.106;11.546;2023-01-19T11:05:46;9.38;;;5.63;;
27199;SDS011;14714;48.106;11.546;2023-01-19T11:08:20;12.63;;;6.00;;
27199;SDS011;14714;48.106;11.546;2023-01-19T11:10:51;10.43;;;6.13;;
27199;SDS011;14714;48.106;11.546;2023-01-19T11:13:21;9.68;;;6.05;;
27199;SDS011;14714;48.106;11.546;2023-01-19T11:15:52;8.85;;;5.65;;
27199;SDS011;14714;48.106;11.546;2023-01-19T11:18:33;8.57;;;5.43;;
27199;SDS011;14714;48.106;11.546;2023-01-19T11:21:11;7.63;;;4.95;;
27199;SDS011;14714;48.106;11.546;2023-01-19T11:23:49;9.60;;;5.57;;
27199;SDS011;14714;48.106;11.546;2023-01-19T11:28:51;8.98;;;5.20;;
27199;SDS011;14714;48.106;11.546;2023-01-19T11:33:55;6.22;;;4.40;;
27199;SDS011;14714;48.106;11.546;2023-01-19T11:36:30;6.77;;;4.87;;
27199;SDS011;14714;48.106;11.546;2023-01-19T11:41:54;8.93;;;4.40;;
27199;SDS011;14714;48.106;11.546;2023-01-19T11:44:28;7.35;;;4.45;;
27199;SDS011;14714;48.106;11.546;2023-01-19T11:46:57;6.93;;;4.40;;
27199;SDS011;14714;48.106;11.546;2023-01-19T11:52:03;9.07;;;4.22;;
27199;SDS011;14714;48.106;11.546;2023-01-19T11:57:57;7.18;;;3.97;;
27199;SDS011;14714;48.106;11.546;2023-01-19T12:00:41;8.07;;;3.30;;
27199;SDS011;14714;48.106;11.546;2023-01-19T12:05:51;5.63;;;3.42;;
27199;SDS011;14714;48.106;11.546;2023-01-19T12:08:23;5.80;;;3.65;;
27199;SDS011;14714;48.106;11.546;2023-01-19T12:10:55;7.28;;;3.72;;
27199;SDS011;14714;48.106;11.546;2023-01-19T12:13:25;5.70;;;3.65;;
27199;SDS011;14714;48.106;11.546;2023-01-19T12:16:06;5.03;;;3.38;;
27199;SDS011;14714;48.106;11.546;2023-01-19T12:18:59;5.55;;;3.25;;
27199;SDS011;14714;48.106;11.546;2023-01-19T12:21:24;6.80;;;3.35;;
27199;SDS011;14714;48.106;11.546;2023-01-19T12:29:14;5.15;;;2.88;;
27199;SDS011;14714;48.106;11.546;2023-01-19T12:31:44;6.68;;;3.60;;
27199;SDS011;14714;48.106;11.546;2023-01-19T12:34:42;6.90;;;3.33;;
27199;SDS011;14714;48.106;11.546;2023-01-19T12:39:57;9.45;;;4.00;;
27199;SDS011;14714;48.106;11.546;2023-01-19T12:42:26;5.82;;;4.03;;
27199;SDS011;14714;48.106;11.546;2023-01-19T12:45:14;8.55;;;4.90;;
27199;SDS011;14714;48.106;11.546;2023-01-19T12:47:49;7.20;;;4.80;;
27199;SDS011;14714;48.106;11.546;2023-01-19T12:50:18;6.90;;;4.13;;
27199;SDS011;14714;48.106;11.546;2023-01-19T12:55:23;6.82;;;4.28;;
27199;SDS011;14714;48.106;11.546;2023-01-19T13:00:37;8.43;;;4.90;;
27199;SDS011;14714;48.106;11.546;2023-01-19T13:06:02;8.10;;;5.10;;
27199;SDS011;14714;48.106;11.546;2023-01-19T13:11:18;11.55;;;5.05;;
27199;SDS011;14714;48.106;11.546;2023-01-19T13:18:54;5.15;;;3.70;;
27199;SDS011;14714;48.106;11.546;2023-01-19T13:21:25;6.60;;;3.70;;
27199;SDS011;14714;48.106;11.546;2023-01-19T13:23:54;7.18;;;3.92;;
27199;SDS011;14714;48.106;11.546;2023-01-19T13:26:24;7.05;;;3.75;;
27199;SDS011;14714;48.106;11.546;2023-01-19T13:29:00;8.05;;;3.83;;
27199;SDS011;14714;48.106;11.546;2023-01-19T13:31:47;7.57;;;4.20;;
27199;SDS011;14714;48.106;11.546;2023-01-19T13:34:18;6.10;;;4.18;;
27199;SDS011;14714;48.106;11.546;2023-01-19T13:36:50;7.05;;;4.28;;
27199;SDS011;14714;48.106;11.546;2023-01-19T13:41:51;9.10;;;4.05;;
27199;SDS011;14714;48.106;11.546;2023-01-19T13:44:25;10.00;;;4.68;;
27199;SDS011;14714;48.106;11.546;2023-01-19T13:46:58;7.85;;;4.68;;
27199;SDS011;14714;48.106;11.546;2023-01-19T13:49:38;10.00;;;4.95;;
27199;SDS011;14714;48.106;11.546;2023-01-19T13:52:13;7.28;;;4.28;;
27199;SDS011;14714;48.106;11.546;2023-01-19T13:57:22;7.85;;;4.90;;
27199;SDS011;14714;48.106;11.546;2023-01-19T14:03:00;9.52;;;4.60;;
27199;SDS011;14714;48.106;11.546;2023-01-19T14:05:43;7.13;;;4.47;;
27199;SDS011;14714;48.106;11.546;2023-01-19T14:08:12;10.10;;;4.80;;
27199;SDS011;14714;48.106;11.546;2023-01-19T14:10:41;6.65;;;4.30;;
27199;SDS011;14714;48.106;11.546;2023-01-19T14:15:45;7.28;;;4.65;;
27199;SDS011;14714;48.106;11.546;2023-01-19T14:20:54;5.43;;;3.50;;
27199;SDS011;14714;48.106;11.546;2023-01-19T14:32:03;7.00;;;3.40;;
27199;SDS011;14714;48.106;11.546;2023-01-19T14:34:43;9.80;;;3.78;;
27199;SDS011;14714;48.106;11.546;2023-01-19T14:42:34;7.18;;;3.97;;
27199;SDS011;14714;48.106;11.546;2023-01-19T14:45:05;7.93;;;3.45;;
27199;SDS011;14714;48.106;11.546;2023-01-19T14:47:42;8.43;;;4.10;;
27199;SDS011;14714;48.106;11.546;2023-01-19T14:50:24;5.78;;;3.58;;
27199;SDS011;14714;48.106;11.546;2023-01-19T14:52:55;11.45;;;3.83;;
27199;SDS011;14714;48.106;11.546;2023-01-19T14:55:34;7.07;;;4.00;;
27199;SDS011;14714;48.106;11.546;2023-01-19T14:58:09;7.38;;;3.80;;
27199;SDS011;14714;48.106;11.546;2023-01-19T15:00:38;7.60;;;3.72;;
27199;SDS011;14714;48.106;11.546;2023-01-19T15:03:05;8.10;;;4.03;;
27199;SDS011;14714;48.106;11.546;2023-01-19T15:05:38;7.25;;;4.50;;
27199;SDS011;14714;48.106;11.546;2023-01-19T15:08:07;8.05;;;4.70;;
27199;SDS011;14714;48.106;11.546;2023-01-19T15:10:40;9.13;;;4.72;;
27199;SDS011;14714;48.106;11.546;2023-01-19T15:13:09;7.43;;;4.50;;
27199;SDS011;14714;48.106;11.546;2023-01-19T15:15:44;9.60;;;4.50;;
27199;SDS011;14714;48.106;11.546;2023-01-19T15:18:16;9.15;;;4.65;;
27199;SDS011;14714;48.106;11.546;2023-01-19T15:20:47;8.25;;;4.72;;
27199;SDS011;14714;48.106;11.546;2023-01-19T15:23:14;6.68;;;4.60;;
27199;SDS011;14714;48.106;11.546;2023-01-19T15:25:40;6.78;;;4.30;;
27199;SDS011;14714;48.106;11.546;2023-01-19T15:28:11;8.00;;;4.25;;
27199;SDS011;14714;48.106;11.546;2023-01-19T15:30:40;8.65;;;4.55;;
27199;SDS011;14714;48.106;11.546;2023-01-19T15:33:28;8.77;;;4.50;;
27199;SDS011;14714;48.106;11.546;2023-01-19T15:36:00;5.97;;;3.80;;
27199;SDS011;14714;48.106;11.546;2023-01-19T15:38:27;6.85;;;4.65;;
27199;SDS011;14714;48.106;11.546;2023-01-19T15:40:54;7.15;;;4.50;;
27199;SDS011;14714;48.106;11.546;2023-01-19T15:43:22;6.85;;;4.30;;
27199;SDS011;14714;48.106;11.546;2023-01-19T15:46:10;7.90;;;5.00;;
27199;SDS011;14714;48.106;11.546;2023-01-19T15:48:38;9.43;;;4.53;;
27199;SDS011;14714;48.106;11.546;2023-01-19T15:51:04;8.43;;;4.72;;
27199;SDS011;14714;48.106;11.546;2023-01-19T15:53:35;9.13;;;4.53;;
27199;SDS011;14714;48.106;11.546;2023-01-19T15:56:02;8.88;;;4.70;;
27199;SDS011;14714;48.106;11.546;2023-01-19T15:58:28;8.32;;;4.65;;
27199;SDS011;14714;48.106;11.546;2023-01-19T16:00:56;8.25;;;5.05;;
27199;SDS011;14714;48.106;11.546;2023-01-19T16:03:24;8.90;;;4.80;;
27199;SDS011;14714;48.106;11.546;2023-01-19T16:05:51;6.93;;;4.47;;
27199;SDS011;14714;48.106;11.546;2023-01-19T16:08:18;8.50;;;4.68;;
27199;SDS011;14714;48.106;11.546;2023-01-19T16:10:47;9.32;;;5.43;;
27199;SDS011;14714;48.106;11.546;2023-01-19T16:13:13;11.55;;;5.60;;
27199;SDS011;14714;48.106;11.546;2023-01-19T16:15:40;8.32;;;4.95;;
27199;SDS011;14714;48.106;11.546;2023-01-19T16:18:10;11.48;;;5.20;;
27199;SDS011;14714;48.106;11.546;2023-01-19T16:20:36;8.77;;;4.90;;
27199;SDS011;14714;48.106;11.546;2023-01-19T16:23:03;7.15;;;4.78;;
27199;SDS011;14714;48.106;11.546;2023-01-19T16:25:55;7.22;;;4.80;;